Hovedside
METAR-TAF:

METAR-TAF

Lufthavner :

Karlstad, Sverige

Karlstad lufthavn

breddegrad: 59-26-41N, lengdegrad: 013-20-15E, høyde over havet: 107 m

Gjeldene værobservasjon

Denne rapporten ble laget for 43 minutter siden, klokken 09:50 UTC
Vind 16 kt fra Sørvest
Temperatur 13°C
Luftfuktighet 72%
Trykk 994 hPa
Sikt 10 km eller mer
lett regn

METAR: ESOK 250950Z AUTO 23016KT 9999 -RA FEW055/// 13/08 Q0994

Tid: 12:33 (10:33 UTC)


TAF: fraværende

Værobservasjoner og værvarsel for over 4000 flyplasser (METAR- og TAF-rapporter).

Tilgjengelige stasjoner er representert av de røde og gule prikkene på kartet.

Hold musepekeren over prikken for å se navnet på stasjonen.

Klikk så for å se værobservasjoner og -varsler.

For å forandre kartet kan du klikke på den grønne knappen med svart kryss for å zoome inn, på den grønne knappen med strek for å zoome ut, eller på de grønne pilene for å se tilstøtende kart.


METAR-TAF: